Time;durP1;ratioP1;P1;durP2;ratioP2;P2;SDS_P1;SDS_P2;PMS_P1;PMS_P2;Temp;Humidity;BMP_temperature;BMP_pressure;BME280_temperature;BME280_humidity;BME280_pressure;Samples;Min_cycle;Max_cycle;Signal;HPM_P1;HPM_P2
2023/12/15 00:01:04;;;;;;;;;;;;;;;22.84;28.53;97561.16;4995900;28;1158;-72
2023/12/15 00:03:30;;;;;;;;;;;;;;;22.33;29.11;97567.16;4979976;28;877;-72
2023/12/15 00:05:57;;;;;;;;;;;;;;;22.14;29.67;97565.41;4979831;28;1108;-72
2023/12/15 00:08:23;;;;;;;;;;;;;;;22.10;29.45;97565.53;4979511;28;1085;-73
2023/12/15 00:10:49;;;;;;;;;;;;;;;22.13;29.32;97586.50;4996239;28;1014;-71
2023/12/15 00:13:14;;;;;;;;;;;;;;;22.27;29.40;97583.13;4978957;28;1902;-72
2023/12/15 00:15:40;;;;;;;;;;;;;;;21.74;29.98;97582.16;4979197;28;984;-71
2023/12/15 00:18:05;;;;;;;;;;;;;;;22.30;29.29;97590.72;4995891;28;973;-71
2023/12/15 00:20:30;;;;;;;;;;;;;;;22.68;28.78;97601.09;4979743;28;952;-72
2023/12/15 00:22:56;;;;;;;;;;;;;;;22.44;29.41;97628.34;4963036;28;1199;-72
2023/12/15 00:25:22;;;;;;;;;;;;;;;22.83;28.68;97616.31;4979426;28;1178;-73
2023/12/15 00:27:48;;;;;;;;;;;;;;;23.08;28.21;97614.63;4967627;28;1525;-72
2023/12/15 00:30:14;;;;;;;;;;;;;;;22.95;28.46;97596.88;4944230;28;1133;-72
2023/12/15 00:32:39;;;;;;;;;;;;;;;22.71;28.68;97594.50;4978397;28;1981;-71
2023/12/15 00:35:05;;;;;;;;;;;;;;;22.49;28.67;97597.34;5016095;28;1279;-72
2023/12/15 00:37:31;;;;;;;;;;;;;;;22.57;28.76;97597.88;5000218;28;1155;-71
2023/12/15 00:39:56;;;;;;;;;;;;;;;22.38;29.10;97596.13;5016217;28;860;-72
2023/12/15 00:42:22;;;;;;;;;;;;;;;21.87;29.80;97596.28;5030661;28;1457;-72
2023/12/15 00:44:47;;;;;;;;;;;;;;;21.69;30.17;97586.34;5019368;28;1016;-72
2023/12/15 00:47:14;;;;;;;;;;;;;;;22.27;29.60;97610.69;4975745;28;1341;-72
2023/12/15 00:49:40;;;;;;;;;;;;;;;22.66;28.71;97609.28;4975808;28;1183;-72
2023/12/15 00:52:06;;;;;;;;;;;;;;;22.91;28.54;97607.59;4975697;28;1907;-72
2023/12/15 00:54:31;;;;;;;;;;;;;;;23.05;28.42;97607.03;4975427;28;1206;-72
2023/12/15 00:56:57;;;;;;;;;;;;;;;23.05;28.15;97609.84;4954966;28;1385;-72
2023/12/15 00:59:22;;;;;;;;;;;;;;;22.58;29.01;97611.56;4940239;29;1183;-72
2023/12/15 01:01:48;;;;;;;;;;;;;;;22.09;29.75;97626.25;4956159;28;1344;-72
2023/12/15 01:04:13;;;;;;;;;;;;;;;22.05;29.65;97619.13;4940744;29;918;-72
2023/12/15 01:06:39;;;;;;;;;;;;;;;22.26;29.50;97623.28;4956342;28;1059;-72
2023/12/15 01:09:04;;;;;;;;;;;;;;;22.53;28.96;97639.72;4940384;29;992;-72
2023/12/15 01:11:30;;;;;;;;;;;;;;;22.16;29.87;97641.44;4955519;29;1464;-72
2023/12/15 01:13:56;;;;;;;;;;;;;;;22.41;29.18;97635.69;4939738;29;2089;-72
2023/12/15 01:16:21;;;;;;;;;;;;;;;22.21;29.62;97636.00;4940349;29;935;-71
2023/12/15 01:18:47;;;;;;;;;;;;;;;22.05;29.83;97630.47;4939766;29;1444;-72
2023/12/15 01:21:12;;;;;;;;;;;;;;;22.04;30.03;97645.88;4939831;28;1153;-72
2023/12/15 01:23:38;;;;;;;;;;;;;;;22.60;29.10;97650.84;4955377;28;1428;-71
2023/12/15 01:26:03;;;;;;;;;;;;;;;22.73;28.84;97656.44;4965676;28;1398;-72
2023/12/15 01:28:29;;;;;;;;;;;;;;;22.77;28.90;97655.06;4955161;29;974;-72
2023/12/15 01:30:54;;;;;;;;;;;;;;;23.01;28.48;97654.63;4956202;29;1083;-72
2023/12/15 01:33:20;;;;;;;;;;;;;;;23.01;28.38;97654.63;4933246;29;1906;-72
2023/12/15 01:35:45;;;;;;;;;;;;;;;22.84;28.82;97645.47;4933388;29;1101;-72
2023/12/15 01:38:11;;;;;;;;;;;;;;;22.19;29.66;97644.16;4898498;29;1118;-71
2023/12/15 01:40:37;;;;;;;;;;;;;;;22.10;29.67;97644.03;4898099;29;1476;-72
2023/12/15 01:43:02;;;;;;;;;;;;;;;22.27;29.69;97653.19;4917403;29;958;-72
2023/12/15 01:45:28;;;;;;;;;;;;;;;22.35;29.68;97655.34;4917135;29;1196;-71
2023/12/15 01:47:54;;;;;;;;;;;;;;;22.15;29.91;97646.31;4917681;29;1030;-72
2023/12/15 01:50:19;;;;;;;;;;;;;;;22.24;29.70;97654.94;4917206;29;1165;-72
2023/12/15 01:52:45;;;;;;;;;;;;;;;22.28;29.29;97651.97;4903573;29;1903;-71
2023/12/15 01:55:10;;;;;;;;;;;;;;;22.20;29.86;97648.59;4917014;29;1608;-71
2023/12/15 01:57:36;;;;;;;;;;;;;;;22.41;29.31;97646.25;4917422;29;948;-72
2023/12/15 02:00:06;;;;;;;;;;;;;;;22.76;28.56;97650.63;4917500;29;962;-71
2023/12/15 02:02:37;;;;;;;;;;;;;;;22.98;28.69;97666.88;4904674;29;1126;-72
2023/12/15 02:05:02;;;;;;;;;;;;;;;22.97;28.23;97670.97;4936329;29;1296;-72
2023/12/15 02:07:28;;;;;;;;;;;;;;;23.07;28.52;97675.47;4920378;29;1169;-72
2023/12/15 02:09:54;;;;;;;;;;;;;;;23.00;28.37;97664.38;4922562;29;1350;-73
2023/12/15 02:12:20;;;;;;;;;;;;;;;22.94;28.23;97666.22;4955508;29;1911;-72
2023/12/15 02:14:46;;;;;;;;;;;;;;;22.56;29.11;97681.34;4955266;29;965;-72
2023/12/15 02:17:11;;;;;;;;;;;;;;;22.54;29.07;97689.53;4954577;28;1015;-72
2023/12/15 02:19:37;;;;;;;;;;;;;;;22.20;29.63;97693.94;4980744;28;1079;-72
2023/12/15 02:22:02;;;;;;;;;;;;;;;22.30;29.54;97698.44;5015102;28;849;-72
2023/12/15 02:24:28;;;;;;;;;;;;;;;22.07;29.91;97701.59;5007641;28;1472;-72
2023/12/15 02:26:53;;;;;;;;;;;;;;;22.40;29.48;97718.38;5018349;28;1214;-72
2023/12/15 02:29:19;;;;;;;;;;;;;;;22.66;28.87;97719.09;5001952;28;1141;-72
2023/12/15 02:31:44;;;;;;;;;;;;;;;22.87;28.62;97724.00;5018023;28;1469;-72
2023/12/15 02:34:10;;;;;;;;;;;;;;;22.95;28.82;97721.72;5035759;28;1911;-72
2023/12/15 02:36:35;;;;;;;;;;;;;;;23.11;28.23;97707.34;5001713;28;1005;-72
2023/12/15 02:39:04;;;;;;;;;;;;;;;23.02;28.60;97725.09;5029205;28;1756;-72
2023/12/15 02:41:32;;;;;;;;;;;;;;;22.49;29.18;97739.09;5019305;28;924;-72
2023/12/15 02:43:57;;;;;;;;;;;;;;;22.32;29.39;97744.13;5001695;28;925;-71
2023/12/15 02:46:23;;;;;;;;;;;;;;;22.23;29.27;97749.69;5019231;28;887;-72
2023/12/15 02:48:48;;;;;;;;;;;;;;;22.45;29.26;97748.97;5018305;28;1112;-72
2023/12/15 02:51:27;;;;;;;;;;;;;;;22.01;30.06;97743.09;5018354;28;1225;-72
2023/12/15 02:53:52;;;;;;;;;;;;;;;22.34;29.38;97755.00;4990933;28;1982;-72
2023/12/15 02:56:18;;;;;;;;;;;;;;;22.19;29.71;97754.69;4958476;28;1069;-72
2023/12/15 02:58:43;;;;;;;;;;;;;;;21.98;30.01;97749.69;4958493;28;1117;-71
2023/12/15 03:01:09;;;;;;;;;;;;;;;21.92;30.21;97780.63;4958264;29;1046;-72
2023/12/15 03:03:34;;;;;;;;;;;;;;;22.73;28.79;97773.50;4958597;29;987;-71
2023/12/15 03:06:00;;;;;;;;;;;;;;;22.83;28.89;97789.38;4958290;29;1001;-72
2023/12/15 03:08:27;;;;;;;;;;;;;;;22.94;28.54;97791.06;4965509;28;1369;-72
2023/12/15 03:10:57;;;;;;;;;;;;;;;23.00;28.46;97789.22;4961344;28;1621;-71
2023/12/15 03:13:22;;;;;;;;;;;;;;;23.32;27.88;97783.19;4977002;28;1902;-72
2023/12/15 03:15:48;;;;;;;;;;;;;;;22.53;29.13;97787.16;4961236;28;1151;-72
2023/12/15 03:18:13;;;;;;;;;;;;;;;22.05;29.59;97794.78;4977204;28;1023;-72
2023/12/15 03:20:39;;;;;;;;;;;;;;;21.99;29.68;97799.44;4976240;28;1312;-71
2023/12/15 03:23:04;;;;;;;;;;;;;;;22.37;29.27;97816.44;4945190;28;1328;-72
2023/12/15 03:25:30;;;;;;;;;;;;;;;22.10;29.66;97837.53;4960836;28;1100;-72
2023/12/15 03:27:56;;;;;;;;;;;;;;;21.89;29.74;97826.84;4946328;29;1206;-72
2023/12/15 03:30:21;;;;;;;;;;;;;;;22.45;29.12;97825.53;4957544;28;964;-72
2023/12/15 03:32:47;;;;;;;;;;;;;;;22.38;28.79;97834.25;4957962;29;1981;-72
2023/12/15 03:35:12;;;;;;;;;;;;;;;21.84;29.78;97836.69;4949928;28;1483;-72
2023/12/15 03:37:38;;;;;;;;;;;;;;;22.21;29.52;97842.88;4963862;28;1579;-72
2023/12/15 03:40:03;;;;;;;;;;;;;;;22.52;29.13;97850.81;4957623;29;1008;-72
2023/12/15 03:42:29;;;;;;;;;;;;;;;22.77;28.75;97856.44;4941573;29;1136;-72
2023/12/15 03:44:54;;;;;;;;;;;;;;;22.91;28.73;97871.44;4957306;29;995;-72
2023/12/15 03:47:20;;;;;;;;;;;;;;;22.73;28.75;97877.66;4957579;29;950;-72
2023/12/15 03:49:45;;;;;;;;;;;;;;;22.73;28.40;97884.13;4956761;28;974;-73
2023/12/15 03:52:11;;;;;;;;;;;;;;;22.28;28.82;97888.00;4940974;29;1910;-72
2023/12/15 03:54:36;;;;;;;;;;;;;;;22.68;28.32;97886.75;4941475;29;973;-72
2023/12/15 03:57:02;;;;;;;;;;;;;;;22.54;28.45;97905.03;4957066;29;1127;-73
2023/12/15 03:59:28;;;;;;;;;;;;;;;22.42;28.71;97906.59;4941557;29;1011;-72
2023/12/15 04:01:53;;;;;;;;;;;;;;;21.97;29.42;97909.59;4943828;28;1285;-72
2023/12/15 04:04:19;;;;;;;;;;;;;;;22.27;29.41;97903.41;4960165;28;1184;-72
2023/12/15 04:06:45;;;;;;;;;;;;;;;22.44;28.93;97909.00;4966901;28;1447;-72
2023/12/15 04:09:10;;;;;;;;;;;;;;;22.42;29.13;97909.44;4959513;28;1382;-72
2023/12/15 04:11:36;;;;;;;;;;;;;;;22.32;29.13;97917.03;4941240;28;1037;-72
2023/12/15 04:14:02;;;;;;;;;;;;;;;22.56;29.11;97928.84;4955169;28;1977;-72
2023/12/15 04:16:27;;;;;;;;;;;;;;;22.70;28.64;97930.44;4976146;28;986;-72
2023/12/15 04:18:53;;;;;;;;;;;;;;;22.90;28.26;97916.03;4976264;28;979;-72
2023/12/15 04:21:18;;;;;;;;;;;;;;;22.74;28.52;97905.59;4960037;28;1023;-72
2023/12/15 04:23:44;;;;;;;;;;;;;;;22.48;28.73;97918.16;4975691;28;1416;-71
2023/12/15 04:26:09;;;;;;;;;;;;;;;22.38;28.63;97924.97;4976054;28;1058;-71
2023/12/15 04:28:35;;;;;;;;;;;;;;;22.58;28.37;97929.16;4975961;28;952;-72
2023/12/15 04:31:00;;;;;;;;;;;;;;;22.49;28.76;97931.13;4976201;28;1219;-72
2023/12/15 04:33:26;;;;;;;;;;;;;;;21.82;29.63;97918.50;4975766;28;1959;-72
2023/12/15 04:35:51;;;;;;;;;;;;;;;21.74;30.20;97894.44;5004607;28;1067;-71
2023/12/15 04:38:17;;;;;;;;;;;;;;;22.50;29.02;97904.34;5014254;28;1312;-72
2023/12/15 04:40:42;;;;;;;;;;;;;;;22.66;28.74;97901.38;5015049;28;1385;-72
2023/12/15 04:43:09;;;;;;;;;;;;;;;22.91;28.19;97911.16;4984138;28;1032;-72
2023/12/15 04:45:34;;;;;;;;;;;;;;;23.01;28.30;97927.81;4995540;28;1013;-72
2023/12/15 04:48:00;;;;;;;;;;;;;;;22.97;28.02;97926.34;4995227;28;1034;-72
2023/12/15 04:50:25;;;;;;;;;;;;;;;22.56;28.53;97922.38;4994971;28;1031;-72
2023/12/15 04:52:51;;;;;;;;;;;;;;;22.58;28.39;97937.69;4989844;28;1926;-72
2023/12/15 04:55:16;;;;;;;;;;;;;;;22.42;28.89;97959.69;5014865;28;913;-72
2023/12/15 04:57:42;;;;;;;;;;;;;;;22.06;29.49;97974.88;4994675;28;1162;-72
2023/12/15 05:00:08;;;;;;;;;;;;;;;21.74;29.94;97968.06;4978910;28;1083;-71
2023/12/15 05:02:33;;;;;;;;;;;;;;;21.72;30.22;97973.41;4978293;28;1235;-72
2023/12/15 05:04:59;;;;;;;;;;;;;;;22.24;29.18;97971.56;4995024;28;1210;-72
2023/12/15 05:07:24;;;;;;;;;;;;;;;22.23;29.18;97979.28;4977928;28;1549;-72
2023/12/15 05:09:49;;;;;;;;;;;;;;;21.79;29.66;97987.34;4994170;28;2100;-72
2023/12/15 05:12:15;;;;;;;;;;;;;;;22.06;29.54;97992.66;4985673;28;1973;-72
2023/12/15 05:14:40;;;;;;;;;;;;;;;22.65;28.63;98001.91;4992879;28;1049;-73
2023/12/15 05:17:06;;;;;;;;;;;;;;;22.84;28.10;97995.19;5014290;28;963;-71
2023/12/15 05:19:31;;;;;;;;;;;;;;;22.74;28.45;97993.53;4997609;28;1267;-72
2023/12/15 05:21:57;;;;;;;;;;;;;;;22.79;28.24;98006.31;5014306;28;1108;-72
2023/12/15 05:24:23;;;;;;;;;;;;;;;22.70;28.64;98001.34;5014170;28;998;-71
2023/12/15 05:26:49;;;;;;;;;;;;;;;22.75;28.38;98000.78;5013739;28;1201;-72
2023/12/15 05:29:14;;;;;;;;;;;;;;;22.68;28.31;98012.31;4981362;28;1395;-72
2023/12/15 05:31:43;;;;;;;;;;;;;;;22.70;28.01;98021.19;5010853;28;1123;-72
2023/12/15 05:34:08;;;;;;;;;;;;;;;22.27;28.69;98030.16;4992117;28;1906;-72
2023/12/15 05:36:34;;;;;;;;;;;;;;;22.34;28.74;98027.94;5010394;28;1099;-73
2023/12/15 05:38:59;;;;;;;;;;;;;;;22.50;28.26;98034.78;4994469;28;1026;-72
2023/12/15 05:41:25;;;;;;;;;;;;;;;21.95;29.25;98031.84;4994352;28;1111;-71
2023/12/15 05:43:50;;;;;;;;;;;;;;;22.40;28.65;98036.69;4994449;28;1028;-72
2023/12/15 05:46:17;;;;;;;;;;;;;;;22.28;28.76;98049.56;4994060;28;957;-72
2023/12/15 05:48:43;;;;;;;;;;;;;;;22.22;29.02;98047.72;4994380;28;1204;-73
2023/12/15 05:51:08;;;;;;;;;;;;;;;22.06;29.34;98042.88;5010236;28;1187;-74
2023/12/15 05:53:34;;;;;;;;;;;;;;;22.11;29.01;98050.84;4994147;28;1911;-74
2023/12/15 05:55:59;;;;;;;;;;;;;;;21.91;29.70;98073.63;4994219;28;955;-73
2023/12/15 05:58:25;;;;;;;;;;;;;;;22.30;28.89;98068.97;4994198;28;1025;-73
2023/12/15 06:00:50;;;;;;;;;;;;;;;23.01;27.97;98066.09;4993957;28;1013;-73
2023/12/15 06:03:17;;;;;;;;;;;;;;;23.10;27.52;98077.53;4994079;28;941;-73
2023/12/15 06:05:43;;;;;;;;;;;;;;;23.06;27.75;98088.22;4977842;28;1447;-74
2023/12/15 06:08:09;;;;;;;;;;;;;;;23.07;27.67;98089.81;4991599;28;1175;-73
2023/12/15 06:10:34;;;;;;;;;;;;;;;22.56;28.28;98093.31;4991449;28;965;-73
2023/12/15 06:12:59;;;;;;;;;;;;;;;22.31;28.45;98096.84;4992616;28;1981;-73
2023/12/15 06:15:25;;;;;;;;;;;;;;;22.27;28.47;98093.31;4995985;28;943;-74
2023/12/15 06:17:50;;;;;;;;;;;;;;;21.99;29.19;98077.88;4995877;28;1143;-73
2023/12/15 06:20:16;;;;;;;;;;;;;;;22.06;29.09;98086.16;4995829;28;1207;-73
2023/12/15 06:22:42;;;;;;;;;;;;;;;21.98;29.03;98101.00;4995622;28;891;-73
2023/12/15 06:25:08;;;;;;;;;;;;;;;21.82;29.70;98111.09;4995700;28;984;-74
2023/12/15 06:27:34;;;;;;;;;;;;;;;22.35;28.62;98125.91;4979644;28;1182;-74
2023/12/15 06:29:59;;;;;;;;;;;;;;;22.71;28.18;98124.91;4995850;28;965;-74
2023/12/15 06:32:25;;;;;;;;;;;;;;;22.81;28.04;98145.69;4980525;28;1972;-74
2023/12/15 06:34:51;;;;;;;;;;;;;;;23.08;27.74;98126.25;5010547;28;1093;-73
2023/12/15 06:37:16;;;;;;;;;;;;;;;23.02;27.21;98127.25;4997291;28;1095;-74
2023/12/15 06:39:43;;;;;;;;;;;;;;;22.40;28.10;98126.59;4997645;28;1185;-73
2023/12/15 06:42:09;;;;;;;;;;;;;;;22.08;28.73;98133.91;4997256;28;1003;-73
2023/12/15 06:44:34;;;;;;;;;;;;;;;22.01;28.92;98139.75;4997783;28;989;-73
2023/12/15 06:47:00;;;;;;;;;;;;;;;22.18;28.64;98149.06;4997216;28;1239;-73
2023/12/15 06:49:30;;;;;;;;;;;;;;;21.78;29.46;98149.25;4997040;28;931;-73
2023/12/15 06:51:56;;;;;;;;;;;;;;;22.08;29.14;98146.03;4996976;28;965;-74
2023/12/15 06:54:22;;;;;;;;;;;;;;;22.20;28.64;98155.88;4997012;28;1906;-73
2023/12/15 06:56:47;;;;;;;;;;;;;;;21.73;29.36;98163.94;4996989;28;1136;-74
2023/12/15 06:59:13;;;;;;;;;;;;;;;22.18;28.62;98183.88;4997073;28;1582;-74
2023/12/15 07:01:38;;;;;;;;;;;;;;;22.11;28.96;98172.72;4977781;28;1117;-74
2023/12/15 07:04:04;;;;;;;;;;;;;;;22.34;28.56;98168.88;4977545;28;1022;-73
2023/12/15 07:06:30;;;;;;;;;;;;;;;22.76;27.92;98172.56;4977438;28;1034;-73
2023/12/15 07:08:55;;;;;;;;;;;;;;;22.98;27.69;98189.00;4977398;28;1008;-73
2023/12/15 07:11:21;;;;;;;;;;;;;;;23.14;27.42;98197.44;4977397;28;1272;-73
2023/12/15 07:13:46;;;;;;;;;;;;;;;22.70;27.97;98214.06;4977101;28;1911;-73
2023/12/15 07:16:12;;;;;;;;;;;;;;;22.70;27.73;98208.41;4977267;28;955;-74
2023/12/15 07:18:37;;;;;;;;;;;;;;;22.32;28.05;98217.50;4977115;28;1139;-71
2023/12/15 07:21:03;;;;;;;;;;;;;;;21.79;28.66;98208.28;4977690;28;964;-72
2023/12/15 07:23:28;;;;;;;;;;;;;;;21.98;28.66;98205.81;4977409;28;929;-72
2023/12/15 07:25:54;;;;;;;;;;;;;;;21.65;29.24;98213.47;4976177;28;1047;-72
2023/12/15 07:28:19;;;;;;;;;;;;;;;21.92;28.99;98228.22;4977302;28;1136;-72
2023/12/15 07:30:45;;;;;;;;;;;;;;;21.98;28.74;98231.31;4976855;28;959;-72
2023/12/15 07:33:11;;;;;;;;;;;;;;;22.03;28.96;98233.63;4976688;28;1959;-71
2023/12/15 07:35:36;;;;;;;;;;;;;;;22.68;27.97;98219.38;4976701;28;1025;-73
2023/12/15 07:38:02;;;;;;;;;;;;;;;22.68;28.13;98227.09;4975254;28;953;-72
2023/12/15 07:40:27;;;;;;;;;;;;;;;22.93;27.63;98237.78;4957672;29;992;-72
2023/12/15 07:42:53;;;;;;;;;;;;;;;22.61;27.90;98245.13;4960277;28;1085;-72
2023/12/15 07:45:18;;;;;;;;;;;;;;;22.59;27.75;98241.94;4996387;28;1097;-72
2023/12/15 07:47:44;;;;;;;;;;;;;;;22.20;28.03;98243.75;4992373;28;956;-72
2023/12/15 07:50:09;;;;;;;;;;;;;;;22.29;28.01;98252.41;4992675;28;964;-71
2023/12/15 07:52:35;;;;;;;;;;;;;;;21.94;28.51;98261.78;4976364;28;1910;-72
2023/12/15 07:55:01;;;;;;;;;;;;;;;21.88;28.84;98274.88;4992987;28;1328;-73
2023/12/15 07:57:26;;;;;;;;;;;;;;;22.24;28.66;98272.00;4976589;28;986;-72
2023/12/15 07:59:52;;;;;;;;;;;;;;;22.76;27.68;98274.69;4992747;28;1086;-72
2023/12/15 08:02:20;;;;;;;;;;;;;;;22.88;27.35;98291.00;4973169;28;1076;-72
2023/12/15 08:04:46;;;;;;;;;;;;;;;23.14;27.11;98293.94;4956645;28;1061;-72
2023/12/15 08:07:11;;;;;;;;;;;;;;;23.28;27.05;98304.09;4956913;29;1005;-72
2023/12/15 08:09:37;;;;;;;;;;;;;;;23.28;26.66;98310.56;4956927;29;1267;-72
2023/12/15 08:12:02;;;;;;;;;;;;;;;22.74;27.57;98305.56;4956908;29;1121;-71
2023/12/15 08:14:28;;;;;;;;;;;;;;;21.62;29.01;98302.97;4957161;29;1965;-72
2023/12/15 08:16:54;;;;;;;;;;;;;;;21.72;28.93;98298.28;4972733;28;976;-72
2023/12/15 08:19:20;;;;;;;;;;;;;;;21.64;29.19;98297.63;4956528;29;1052;-72
2023/12/15 08:21:47;;;;;;;;;;;;;;;22.18;28.43;98311.41;4956587;29;999;-72
2023/12/15 08:24:13;;;;;;;;;;;;;;;22.45;27.74;98310.34;4952969;29;1535;-72
2023/12/15 08:26:38;;;;;;;;;;;;;;;22.33;27.98;98309.84;4972566;28;1506;-71
2023/12/15 08:29:04;;;;;;;;;;;;;;;22.33;27.91;98315.50;4956491;29;1675;-73
2023/12/15 08:31:30;;;;;;;;;;;;;;;22.18;28.37;98311.41;4940317;29;1534;-72
2023/12/15 08:33:55;;;;;;;;;;;;;;;22.01;28.79;98304.09;4985440;28;1978;-72
2023/12/15 08:36:21;;;;;;;;;;;;;;;22.66;27.53;98304.13;4996134;28;1566;-71
2023/12/15 08:38:47;;;;;;;;;;;;;;;22.79;27.63;98302.16;5012585;28;1622;-72
2023/12/15 08:41:12;;;;;;;;;;;;;;;22.59;27.52;98298.66;5017911;28;1387;-72
2023/12/15 08:43:38;;;;;;;;;;;;;;;22.75;27.76;98312.81;5034338;28;1518;-71
2023/12/15 08:46:03;;;;;;;;;;;;;;;23.07;27.02;98311.19;5033767;28;1569;-72
2023/12/15 08:48:29;;;;;;;;;;;;;;;21.95;28.40;98300.19;4982197;28;1549;-72
2023/12/15 08:50:54;;;;;;;;;;;;;;;22.00;28.40;98313.84;5014792;28;1055;-72
2023/12/15 08:53:20;;;;;;;;;;;;;;;22.46;27.75;98300.59;5014547;28;1979;-71
2023/12/15 08:55:46;;;;;;;;;;;;;;;22.20;27.92;98303.25;5030333;28;1633;-72
2023/12/15 08:58:11;;;;;;;;;;;;;;;22.15;28.30;98332.13;5017073;28;1546;-72
2023/12/15 09:00:37;;;;;;;;;;;;;;;22.00;28.35;98322.34;5018098;28;1064;-72
2023/12/15 09:03:02;;;;;;;;;;;;;;;22.27;28.25;98314.41;5017708;28;1276;-72
2023/12/15 09:05:28;;;;;;;;;;;;;;;22.17;28.22;98301.28;5034031;28;955;-74
2023/12/15 09:07:54;;;;;;;;;;;;;;;22.30;28.12;98299.38;5017651;28;1029;-72
2023/12/15 09:10:19;;;;;;;;;;;;;;;22.33;28.17;98292.03;5013907;28;998;-72
2023/12/15 09:12:45;;;;;;;;;;;;;;;22.67;27.73;98288.72;5014153;28;1980;-72
2023/12/15 09:15:12;;;;;;;;;;;;;;;22.76;27.15;98285.25;5014588;28;1065;-72
2023/12/15 09:17:46;;;;;;;;;;;;;;;22.70;27.58;98293.50;5014701;28;963;-72
2023/12/15 09:20:12;;;;;;;;;;;;;;;22.74;27.37;98282.84;5014235;28;1009;-72
2023/12/15 09:22:37;;;;;;;;;;;;;;;22.55;27.36;98292.28;4997999;28;974;-72
2023/12/15 09:25:04;;;;;;;;;;;;;;;22.41;27.27;98315.31;4998049;28;1083;-72
2023/12/15 09:27:29;;;;;;;;;;;;;;;22.55;27.17;98331.97;4975067;28;1671;-72
2023/12/15 09:29:55;;;;;;;;;;;;;;;22.40;27.37;98316.56;4959068;28;1270;-71
2023/12/15 09:32:20;;;;;;;;;;;;;;;22.16;27.85;98305.38;4936426;29;1910;-72
2023/12/15 09:34:46;;;;;;;;;;;;;;;22.19;27.88;98298.84;4916188;29;1452;-72
2023/12/15 09:37:12;;;;;;;;;;;;;;;22.02;28.37;98300.00;4936834;29;990;-71
2023/12/15 09:39:38;;;;;;;;;;;;;;;22.49;27.60;98300.53;4936594;29;1127;-72
2023/12/15 09:42:04;;;;;;;;;;;;;;;22.73;27.10;98309.59;4933194;29;2310;-73
2023/12/15 09:44:29;;;;;;;;;;;;;;;22.42;27.76;98314.88;4931243;29;1595;-74
2023/12/15 09:46:57;;;;;;;;;;;;;;;23.03;26.84;98316.16;4944568;29;1677;-73
2023/12/15 09:49:24;;;;;;;;;;;;;;;22.73;26.91;98318.13;4919405;29;1710;-73
2023/12/15 09:51:50;;;;;;;;;;;;;;;22.55;27.12;98320.63;4928650;29;1997;-74
2023/12/15 09:54:15;;;;;;;;;;;;;;;22.18;27.73;98319.91;4925072;29;1895;-73
2023/12/15 09:56:41;;;;;;;;;;;;;;;22.02;27.91;98323.50;4917784;29;1194;-73
2023/12/15 09:59:07;;;;;;;;;;;;;;;22.25;27.88;98331.06;4946805;29;927;-72
2023/12/15 10:01:32;;;;;;;;;;;;;;;22.40;27.69;98342.09;4955967;29;949;-74
2023/12/15 10:03:58;;;;;;;;;;;;;;;22.21;27.98;98341.69;4955809;29;1052;-73
2023/12/15 10:06:24;;;;;;;;;;;;;;;22.68;27.06;98332.84;4956057;29;905;-73
2023/12/15 10:08:49;;;;;;;;;;;;;;;22.80;27.09;98349.16;4960025;28;1299;-73
2023/12/15 10:11:18;;;;;;;;;;;;;;;23.05;26.79;98342.84;5011744;28;1031;-73
2023/12/15 10:13:44;;;;;;;;;;;;;;;22.86;27.04;98330.34;4995101;28;1969;-73
2023/12/15 10:16:09;;;;;;;;;;;;;;;22.69;27.22;98334.47;4995610;28;1175;-73
2023/12/15 10:18:35;;;;;;;;;;;;;;;22.42;27.23;98334.72;4997938;28;2040;-73
2023/12/15 10:21:01;;;;;;;;;;;;;;;22.06;27.84;98335.53;5014592;28;972;-73
2023/12/15 10:23:26;;;;;;;;;;;;;;;21.79;28.60;98344.25;5016045;28;911;-73
2023/12/15 10:25:53;;;;;;;;;;;;;;;22.29;27.58;98348.00;5031055;28;913;-73
2023/12/15 10:28:19;;;;;;;;;;;;;;;22.05;27.96;98341.66;5030906;28;1148;-72
2023/12/15 10:30:45;;;;;;;;;;;;;;;22.28;27.89;98350.06;5031452;28;908;-73
2023/12/15 10:33:10;;;;;;;;;;;;;;;22.71;27.12;98357.50;5017209;28;1959;-72
2023/12/15 10:35:36;;;;;;;;;;;;;;;22.69;27.33;98359.16;5034299;28;950;-73
2023/12/15 10:38:02;;;;;;;;;;;;;;;22.93;26.83;98359.81;5034558;28;932;-73
2023/12/15 10:40:27;;;;;;;;;;;;;;;22.88;26.99;98378.97;5018075;28;1258;-73
2023/12/15 10:42:53;;;;;;;;;;;;;;;22.46;27.01;98391.34;5035278;28;901;-73
2023/12/15 10:45:18;;;;;;;;;;;;;;;22.63;26.95;98387.25;5034587;28;922;-73
2023/12/15 10:47:44;;;;;;;;;;;;;;;22.40;27.30;98376.09;5018081;28;978;-73
2023/12/15 10:50:09;;;;;;;;;;;;;;;21.54;28.39;98361.75;5017831;28;1250;-73
2023/12/15 10:52:38;;;;;;;;;;;;;;;22.21;27.88;98357.91;5034923;28;1902;-73
2023/12/15 10:55:03;;;;;;;;;;;;;;;22.00;27.90;98353.50;5034865;28;1465;-73
2023/12/15 10:57:30;;;;;;;;;;;;;;;22.17;27.92;98363.66;5034135;28;916;-72
2023/12/15 10:59:56;;;;;;;;;;;;;;;22.63;27.36;98361.75;4978561;28;1693;-73
2023/12/15 11:02:23;;;;;;;;;;;;;;;22.74;26.76;98355.78;4997189;28;1506;-73
2023/12/15 11:04:49;;;;;;;;;;;;;;;22.95;26.53;98366.66;4949400;28;1234;-73
2023/12/15 11:07:21;;;;;;;;;;;;;;;22.94;26.83;98381.25;4981120;28;1109;-73
2023/12/15 11:09:46;;;;;;;;;;;;;;;22.64;27.21;98380.38;4980774;28;1033;-73
2023/12/15 11:12:24;;;;;;;;;;;;;;;22.37;27.42;98383.44;4981384;28;1073;-73
2023/12/15 11:14:53;;;;;;;;;;;;;;;22.06;27.82;98380.06;4981221;28;1115;-73
2023/12/15 11:17:19;;;;;;;;;;;;;;;22.26;27.29;98377.22;4980851;28;988;-73
2023/12/15 11:19:45;;;;;;;;;;;;;;;21.90;27.98;98378.00;4981079;28;942;-73
2023/12/15 11:22:11;;;;;;;;;;;;;;;22.07;27.81;98387.34;4997024;28;1014;-73
2023/12/15 11:24:37;;;;;;;;;;;;;;;21.54;28.82;98406.25;4981167;28;932;-73
2023/12/15 11:27:04;;;;;;;;;;;;;;;21.88;28.19;98408.03;4980661;28;995;-73
2023/12/15 11:29:33;;;;;;;;;;;;;;;22.51;27.50;98410.66;4977092;28;962;-72
2023/12/15 11:32:18;;;;;;;;;;;;;;;22.91;26.80;98414.19;4981528;28;1109;-72
2023/12/15 11:34:44;;;;;;;;;;;;;;;23.01;26.58;98415.16;5015842;28;1906;-72
2023/12/15 11:37:11;;;;;;;;;;;;;;;23.06;26.41;98420.28;4983894;28;1246;-73
2023/12/15 11:39:39;;;;;;;;;;;;;;;23.13;26.31;98417.25;4996306;28;936;-72
2023/12/15 11:42:04;;;;;;;;;;;;;;;22.67;26.79;98441.88;4980276;28;1340;-72
2023/12/15 11:44:30;;;;;;;;;;;;;;;22.32;27.23;98435.78;4964159;28;1005;-72
2023/12/15 11:46:56;;;;;;;;;;;;;;;22.12;27.40;98445.56;4964389;28;1184;-72
2023/12/15 11:49:22;;;;;;;;;;;;;;;22.04;27.69;98444.91;4963976;28;1285;-72
2023/12/15 11:51:48;;;;;;;;;;;;;;;22.16;27.62;98451.97;4960675;28;1017;-73
2023/12/15 11:54:13;;;;;;;;;;;;;;;22.27;27.63;98458.97;4961101;28;1902;-73
2023/12/15 11:56:39;;;;;;;;;;;;;;;21.64;28.62;98467.56;4960774;28;943;-72
2023/12/15 11:59:04;;;;;;;;;;;;;;;22.25;27.63;98472.00;4960925;28;984;-73
2023/12/15 12:01:35;;;;;;;;;;;;;;;22.19;27.65;98468.09;4994964;28;1065;-73
2023/12/15 12:04:00;;;;;;;;;;;;;;;22.19;27.56;98468.91;4980298;28;1133;-74
2023/12/15 12:06:26;;;;;;;;;;;;;;;22.62;27.01;98470.75;4996146;28;1004;-73
2023/12/15 12:08:51;;;;;;;;;;;;;;;22.88;26.60;98463.28;4996087;28;1219;-72
2023/12/15 12:11:17;;;;;;;;;;;;;;;22.81;26.87;98467.06;4978813;28;1077;-73
2023/12/15 12:13:43;;;;;;;;;;;;;;;23.00;26.44;98481.63;4979478;28;1963;-72
2023/12/15 12:16:08;;;;;;;;;;;;;;;22.86;26.58;98477.91;4982344;28;1056;-73
2023/12/15 12:18:34;;;;;;;;;;;;;;;21.88;28.09;98493.00;4998982;28;1078;-73
2023/12/15 12:21:03;;;;;;;;;;;;;;;21.55;28.45;98498.47;4999403;28;1009;-72
2023/12/15 12:23:29;;;;;;;;;;;;;;;22.18;27.36;98489.97;4998610;28;1181;-73
2023/12/15 12:25:55;;;;;;;;;;;;;;;21.97;27.75;98496.06;4998995;28;1146;-73
2023/12/15 12:28:21;;;;;;;;;;;;;;;22.33;27.40;98496.94;4982593;28;1606;-73
2023/12/15 12:30:48;;;;;;;;;;;;;;;22.18;27.57;98492.81;5014856;28;1562;-73
2023/12/15 12:33:14;;;;;;;;;;;;;;;22.17;27.43;98494.03;4998770;28;1989;-73
2023/12/15 12:35:39;;;;;;;;;;;;;;;22.29;27.59;98506.75;4998519;28;1586;-72
2023/12/15 12:38:06;;;;;;;;;;;;;;;22.53;26.97;98515.94;5015144;28;952;-73
2023/12/15 12:40:32;;;;;;;;;;;;;;;22.80;26.51;98519.38;4998953;28;1519;-73
2023/12/15 12:42:58;;;;;;;;;;;;;;;22.86;26.58;98534.63;4982483;28;1074;-74
2023/12/15 12:45:24;;;;;;;;;;;;;;;22.83;26.30;98524.16;4982609;28;973;-73
2023/12/15 12:47:49;;;;;;;;;;;;;;;22.93;26.47;98530.06;4982305;28;964;-73
2023/12/15 12:50:16;;;;;;;;;;;;;;;22.58;26.71;98526.75;4998768;28;930;-73
2023/12/15 12:52:42;;;;;;;;;;;;;;;22.57;26.74;98522.34;4982336;28;1970;-73